Aviation Digital Data Service (ADDS)

Output produced by METARs form (1348 UTC 21 August 2019)
found at http://www.aviationweather.gov/metar/data/
 
Forecast for: ESKN (SKAVSTA/STOCKHO , SE)
Text: TAF ESKN 211130Z 2112/2212 25008KT CAVOK
Forecast period: 1200 UTC 21 August 2019 to 1200 UTC 22 August 2019
Forecast type: FROM: standard forecast or significant change
Winds: from the WSW (250 degrees) at 9 MPH (8 knots; 4.1 m/s)
Visibility: 6 or more miles 10+ km)
Ceiling: unknown
Clouds: missing
Weather: NSW  (no significant weather)
Text: PROB40 2112/2115 SCT045TCU
Forecast period: 1200 to 1500 UTC 21 August 2019
Forecast type: PROBABLE: 40 percent likelihood of the following during this time
Visibility: missing
Ceiling: at least 12,000 feet AGL
Clouds: scattered clouds at 4500 feet AGL
Weather: no significant weather forecast for this period